createdAt,value
2022-10-17T00:00:25.970Z,17.40
2022-10-17T00:02:56.545Z,17.50
2022-10-17T00:05:25.088Z,17.40
2022-10-17T00:07:53.388Z,17.40
2022-10-17T00:10:22.409Z,17.40
2022-10-17T00:12:52.349Z,17.30
2022-10-17T00:15:22.162Z,17.30
2022-10-17T00:17:50.433Z,17.30
2022-10-17T00:20:18.631Z,17.30
2022-10-17T00:22:46.892Z,17.20
2022-10-17T00:25:15.004Z,17.20
2022-10-17T00:27:43.378Z,17.20
2022-10-17T00:30:15.414Z,17.20
2022-10-17T00:32:43.579Z,17.20
2022-10-17T00:35:11.983Z,17.10
2022-10-17T00:37:40.163Z,17.10
2022-10-17T00:40:09.743Z,17.10
2022-10-17T00:42:37.858Z,17.10
2022-10-17T00:45:17.611Z,17.10
2022-10-17T00:47:49.335Z,17.10
2022-10-17T00:50:17.752Z,17.10
2022-10-17T00:52:47.086Z,17.00
2022-10-17T00:55:19.483Z,17.10
2022-10-17T00:57:48.107Z,17.00
2022-10-17T01:00:19.055Z,17.00
2022-10-17T01:02:47.382Z,17.00
2022-10-17T01:05:17.102Z,17.00
2022-10-17T01:07:47.103Z,17.00
2022-10-17T01:10:16.083Z,17.00
2022-10-17T01:13:01.528Z,17.10
2022-10-17T01:15:41.191Z,17.10
2022-10-17T01:18:15.903Z,17.10
2022-10-17T01:21:29.020Z,17.10
2022-10-17T01:24:27.309Z,17.10
2022-10-17T01:27:34.969Z,17.10
2022-10-17T01:30:46.383Z,17.00
2022-10-17T01:33:23.380Z,17.10
2022-10-17T01:36:00.521Z,17.00
2022-10-17T01:38:36.784Z,17.00
2022-10-17T01:41:10.927Z,16.90
2022-10-17T01:43:42.276Z,17.00
2022-10-17T02:21:02.010Z,16.80
2022-10-17T02:23:39.045Z,16.70
2022-10-17T02:26:13.154Z,16.70
2022-10-17T02:28:45.967Z,16.70
2022-10-17T02:31:18.821Z,16.70
2022-10-17T02:33:50.315Z,16.70
2022-10-17T02:36:24.341Z,16.70
2022-10-17T02:38:54.406Z,16.70
2022-10-17T02:41:25.002Z,16.70
2022-10-17T02:43:57.617Z,16.80
2022-10-17T02:46:29.869Z,16.80
2022-10-17T02:49:02.954Z,16.80
2022-10-17T02:51:43.393Z,16.90
2022-10-17T02:54:18.024Z,16.90
2022-10-17T02:56:52.664Z,16.80
2022-10-17T02:59:23.985Z,16.90
2022-10-17T03:01:52.952Z,16.90
2022-10-17T03:04:21.442Z,16.80
2022-10-17T03:06:51.051Z,16.90
2022-10-17T03:09:19.278Z,16.90
2022-10-17T03:11:47.486Z,16.90
2022-10-17T03:14:15.775Z,16.90
2022-10-17T03:16:43.999Z,16.90
2022-10-17T03:19:12.216Z,16.90
2022-10-17T03:21:40.440Z,16.90
2022-10-17T03:24:10.259Z,16.90
2022-10-17T03:26:38.537Z,17.00
2022-10-17T03:29:06.832Z,16.90
2022-10-17T03:31:35.477Z,17.00
2022-10-17T03:34:04.364Z,17.00
2022-10-17T03:36:32.648Z,17.00
2022-10-17T03:39:00.863Z,17.00
2022-10-17T03:41:30.483Z,17.00
2022-10-17T03:43:58.697Z,16.90
2022-10-17T03:46:26.937Z,16.90
2022-10-17T03:48:55.322Z,16.90
2022-10-17T03:51:23.579Z,16.90
2022-10-17T03:53:51.854Z,16.90
2022-10-17T03:56:22.443Z,16.90
2022-10-17T03:58:52.105Z,16.90
2022-10-17T04:01:21.393Z,16.90
2022-10-17T04:03:51.615Z,16.90
2022-10-17T04:06:20.809Z,16.90
2022-10-17T04:08:49.555Z,16.90
2022-10-17T04:11:19.882Z,16.90
2022-10-17T04:13:48.618Z,16.90
2022-10-17T04:16:18.913Z,16.90
2022-10-17T04:18:47.186Z,17.00
2022-10-17T04:21:15.410Z,17.00
2022-10-17T04:23:43.652Z,17.10
2022-10-17T04:26:11.869Z,17.10
2022-10-17T04:28:40.198Z,17.10
2022-10-17T04:31:11.672Z,17.10
2022-10-17T04:33:41.692Z,17.10
2022-10-17T04:36:13.719Z,17.10
2022-10-17T04:38:42.241Z,17.00
2022-10-17T04:41:13.908Z,17.00
2022-10-17T04:43:44.473Z,16.90
2022-10-17T04:46:16.583Z,16.90
2022-10-17T04:48:46.414Z,16.80
2022-10-17T04:51:16.407Z,16.80
2022-10-17T04:53:45.409Z,16.70
2022-10-17T04:56:15.678Z,16.70
2022-10-17T04:58:44.873Z,16.60
2022-10-17T05:01:14.902Z,16.60
2022-10-17T05:03:43.829Z,16.60
2022-10-17T05:06:15.236Z,16.60
2022-10-17T05:08:43.775Z,16.60
2022-10-17T05:11:20.378Z,16.60
2022-10-17T05:13:52.570Z,16.60
2022-10-17T05:16:21.223Z,16.60
2022-10-17T05:18:52.968Z,16.60
2022-10-17T05:21:24.162Z,16.60
2022-10-17T05:23:53.116Z,16.60
2022-10-17T05:26:21.824Z,16.60
2022-10-17T05:28:50.134Z,16.70
2022-10-17T05:31:18.421Z,16.70
2022-10-17T05:33:46.666Z,16.70
2022-10-17T05:36:14.943Z,16.70
2022-10-17T05:38:44.628Z,16.80
2022-10-17T05:41:12.830Z,16.80
2022-10-17T05:43:41.092Z,16.90
2022-10-17T05:46:09.475Z,16.90
2022-10-17T05:48:37.821Z,16.90
2022-10-17T05:51:08.869Z,17.00
2022-10-17T05:53:39.377Z,17.00
2022-10-17T05:56:11.200Z,17.00
2022-10-17T05:58:50.401Z,17.00
2022-10-17T06:01:20.342Z,17.10
2022-10-17T06:03:48.699Z,17.00
2022-10-17T06:06:17.804Z,17.10
2022-10-17T06:08:46.820Z,17.10
2022-10-17T06:11:16.521Z,17.10
2022-10-17T06:13:44.794Z,17.10
2022-10-17T06:16:13.032Z,17.10
2022-10-17T06:18:41.699Z,17.10
2022-10-17T06:21:12.696Z,17.10
2022-10-17T06:23:41.039Z,17.20
2022-10-17T06:26:09.646Z,17.20
2022-10-17T06:28:39.367Z,17.30
2022-10-17T06:31:08.516Z,17.30
2022-10-17T06:33:36.853Z,17.50
2022-10-17T06:36:06.034Z,17.70
2022-10-17T06:38:36.562Z,17.90
2022-10-17T06:41:08.343Z,18.10
2022-10-17T06:43:38.617Z,18.30
2022-10-17T06:46:07.997Z,18.50
2022-10-17T06:48:36.678Z,18.70
2022-10-17T06:51:06.626Z,19.00
2022-10-17T07:56:34.915Z,23.70
2022-10-17T07:59:05.313Z,23.90
2022-10-17T08:01:37.004Z,24.00
2022-10-17T08:04:05.237Z,24.10
2022-10-17T08:06:33.459Z,24.20
2022-10-17T08:09:02.547Z,24.30
2022-10-17T08:11:30.741Z,24.50
2022-10-17T08:14:00.353Z,24.60
2022-10-17T08:16:28.543Z,24.80
2022-10-17T08:18:56.865Z,24.90
2022-10-17T08:21:25.179Z,24.90
2022-10-17T08:23:53.489Z,25.00
2022-10-17T08:26:21.869Z,25.10
2022-10-17T08:28:50.506Z,25.20
2022-10-17T08:31:21.938Z,25.30
2022-10-17T08:33:51.367Z,25.40
2022-10-17T08:36:21.442Z,25.50
2022-10-17T08:38:52.855Z,25.50
2022-10-17T08:41:52.589Z,25.50
2022-10-17T08:44:32.743Z,25.40
2022-10-17T08:47:05.370Z,25.30
2022-10-17T08:49:46.926Z,25.10
2022-10-17T08:52:23.490Z,25.00
2022-10-17T08:54:52.583Z,25.00
2022-10-17T08:57:20.891Z,25.00
2022-10-17T08:59:52.560Z,24.90
2022-10-17T09:02:44.580Z,25.00
2022-10-17T09:05:31.189Z,25.00
2022-10-17T09:08:08.375Z,25.10
2022-10-17T09:10:45.312Z,25.20
2022-10-17T09:13:25.406Z,25.30
2022-10-17T09:16:12.561Z,25.40
2022-10-17T09:18:44.171Z,25.50
2022-10-17T09:21:20.970Z,25.70
2022-10-17T09:23:59.443Z,25.80
2022-10-17T09:26:37.911Z,26.00
2022-10-17T09:29:16.967Z,26.20
2022-10-17T09:31:50.290Z,26.30
2022-10-17T09:34:21.961Z,26.50
2022-10-17T09:36:52.971Z,26.60
2022-10-17T09:39:26.154Z,26.80
2022-10-17T09:41:56.692Z,27.00
2022-10-17T09:44:27.286Z,27.20
2022-10-17T09:47:09.739Z,27.40
2022-10-17T09:49:41.437Z,27.60
2022-10-17T09:52:15.174Z,27.90
2022-10-17T09:54:46.652Z,28.10
2022-10-17T09:57:16.666Z,28.30
2022-10-17T09:59:46.807Z,28.40
2022-10-17T10:02:21.244Z,28.70
2022-10-17T10:05:04.950Z,28.80
2022-10-17T10:07:36.669Z,29.00
2022-10-17T10:10:07.603Z,29.30
2022-10-17T10:12:37.626Z,29.50
2022-10-17T10:15:34.544Z,29.60
2022-10-17T10:18:03.178Z,29.80
2022-10-17T10:20:35.869Z,30.00
2022-10-17T10:23:08.058Z,30.20
2022-10-17T10:25:37.670Z,30.40
2022-10-17T10:28:12.099Z,30.50
2022-10-17T10:30:40.399Z,30.70
2022-10-17T10:33:13.411Z,30.90
2022-10-17T10:35:43.068Z,31.00
2022-10-17T10:38:15.371Z,31.20
2022-10-17T10:40:48.298Z,31.30
2022-10-17T10:43:24.441Z,31.50
2022-10-17T10:45:53.660Z,31.70
2022-10-17T10:48:24.760Z,31.80
2022-10-17T10:50:59.229Z,32.00
2022-10-17T10:53:35.808Z,32.10
2022-10-17T10:56:09.493Z,32.20
2022-10-17T10:58:53.403Z,32.30
2022-10-17T11:01:29.446Z,32.30
2022-10-17T11:04:32.616Z,32.40
2022-10-17T11:07:03.553Z,32.50
2022-10-17T11:09:42.307Z,32.70
2022-10-17T11:12:18.247Z,32.80
2022-10-17T11:14:52.800Z,32.90
2022-10-17T11:17:30.542Z,33.00
2022-10-17T11:20:11.234Z,33.10
2022-10-17T11:22:45.488Z,33.10
2022-10-17T11:25:29.284Z,33.10
2022-10-17T11:28:02.184Z,33.20
2022-10-17T11:30:41.463Z,33.20
2022-10-17T11:33:12.058Z,33.20
2022-10-17T11:35:58.707Z,33.20
2022-10-17T11:38:38.064Z,33.30
2022-10-17T11:41:07.894Z,33.50
2022-10-17T11:43:41.199Z,33.50
2022-10-17T11:46:17.146Z,33.50
2022-10-17T11:48:56.413Z,33.50
2022-10-17T11:54:18.909Z,33.60
2022-10-17T11:56:54.477Z,33.60
2022-10-17T11:59:55.547Z,33.60
2022-10-17T12:02:35.064Z,33.70
2022-10-17T12:05:11.303Z,33.70
2022-10-17T12:07:53.808Z,33.80
2022-10-17T12:10:36.287Z,33.90
2022-10-17T12:13:37.830Z,34.00
2022-10-17T12:16:51.072Z,34.10
2022-10-17T12:19:26.642Z,34.20
2022-10-17T12:22:21.288Z,34.20
2022-10-17T12:25:03.100Z,34.10
2022-10-17T12:27:45.982Z,34.00
2022-10-17T12:30:23.897Z,33.80
2022-10-17T12:33:07.536Z,33.60
2022-10-17T12:35:37.704Z,33.30
2022-10-17T12:38:29.684Z,33.00
2022-10-17T12:41:00.086Z,32.80
2022-10-17T12:46:47.809Z,32.60
2022-10-17T12:49:40.840Z,32.60
2022-10-17T12:52:26.716Z,32.70
2022-10-17T12:55:14.679Z,32.70
2022-10-17T12:57:51.772Z,32.90
2022-10-17T13:00:25.261Z,32.90
2022-10-17T13:02:56.087Z,32.90
2022-10-17T13:05:29.588Z,33.00
2022-10-17T13:08:00.548Z,33.00
2022-10-17T13:10:32.296Z,32.90
2022-10-17T13:13:15.174Z,32.90
2022-10-17T13:15:48.135Z,32.80
2022-10-17T13:18:22.080Z,32.70
2022-10-17T13:20:58.038Z,32.60
2022-10-17T13:42:29.907Z,31.90
2022-10-17T13:45:00.214Z,31.70
2022-10-17T13:47:30.701Z,31.60
2022-10-17T13:50:00.428Z,31.40
2022-10-17T13:52:30.957Z,31.30
2022-10-17T13:55:08.614Z,31.30
2022-10-17T13:57:38.275Z,31.30
2022-10-17T14:00:12.635Z,31.40
2022-10-17T14:02:42.474Z,31.40
2022-10-17T14:05:18.967Z,31.50
2022-10-17T14:08:10.883Z,31.50
2022-10-17T14:10:41.616Z,31.60
2022-10-17T14:13:21.792Z,31.60
2022-10-17T14:15:51.169Z,31.60
2022-10-17T14:18:22.811Z,31.60
2022-10-17T14:23:42.997Z,31.70
2022-10-17T14:26:16.626Z,31.70
2022-10-17T14:28:49.689Z,31.70
2022-10-17T14:31:27.686Z,31.70
2022-10-17T14:33:56.304Z,31.60
2022-10-17T14:36:35.358Z,31.40
2022-10-17T14:39:04.681Z,31.20
2022-10-17T14:41:44.030Z,31.00
2022-10-17T14:44:23.503Z,30.70
2022-10-17T14:46:56.781Z,30.40
2022-10-17T14:49:29.745Z,30.00
2022-10-17T14:52:27.589Z,29.80
2022-10-17T14:54:56.283Z,29.60
2022-10-17T14:57:27.752Z,29.30
2022-10-17T14:59:58.382Z,29.10
2022-10-17T15:02:28.184Z,28.80
2022-10-17T15:04:56.896Z,28.60
2022-10-17T15:07:25.215Z,28.50
2022-10-17T15:09:54.737Z,28.30
2022-10-17T15:12:25.144Z,28.10
2022-10-17T15:14:54.243Z,27.90
2022-10-17T15:17:25.939Z,27.90
2022-10-17T15:19:54.257Z,27.70
2022-10-17T15:22:22.651Z,27.60
2022-10-17T15:24:50.998Z,27.50
2022-10-17T15:27:21.389Z,27.40
2022-10-17T15:29:50.203Z,27.30
2022-10-17T15:32:18.861Z,27.20
2022-10-17T15:34:48.803Z,27.10
2022-10-17T15:37:20.978Z,27.00
2022-10-17T15:39:53.450Z,26.90
2022-10-17T15:42:23.720Z,26.80
2022-10-17T15:44:52.209Z,26.70
2022-10-17T15:47:25.966Z,26.70
2022-10-17T15:49:56.623Z,26.60
2022-10-17T15:52:25.430Z,26.50
2022-10-17T15:54:54.190Z,26.50
2022-10-17T15:57:24.720Z,26.40
2022-10-17T15:59:54.293Z,26.40
2022-10-17T16:02:24.657Z,26.30
2022-10-17T16:04:53.719Z,26.20
2022-10-17T16:07:24.479Z,26.20
2022-10-17T16:09:52.690Z,26.10
2022-10-17T16:12:31.234Z,26.10
2022-10-17T16:14:59.559Z,26.00
2022-10-17T16:17:28.275Z,26.00
2022-10-17T16:19:56.733Z,25.90
2022-10-17T16:22:32.609Z,25.90
2022-10-17T16:25:09.319Z,25.80
2022-10-17T16:27:38.386Z,25.80
2022-10-17T16:30:08.940Z,25.70
2022-10-17T16:32:37.220Z,25.60
2022-10-17T16:35:06.287Z,25.50
2022-10-17T16:37:36.123Z,25.50
2022-10-17T16:40:05.169Z,25.40
2022-10-17T16:42:33.382Z,25.30
2022-10-17T16:45:01.633Z,25.20
2022-10-17T16:47:29.840Z,25.10
2022-10-17T16:49:58.037Z,25.00
2022-10-17T16:52:26.490Z,24.90
2022-10-17T16:54:56.179Z,24.80
2022-10-17T16:57:24.434Z,24.70
2022-10-17T16:59:52.751Z,24.70
2022-10-17T17:02:21.484Z,24.60
2022-10-17T17:04:49.979Z,24.50
2022-10-17T17:07:19.654Z,24.50
2022-10-17T17:09:47.952Z,24.50
2022-10-17T17:12:20.245Z,24.40
2022-10-17T17:14:48.610Z,24.30
2022-10-17T17:17:30.278Z,24.30
2022-10-17T17:20:05.688Z,24.20
2022-10-17T17:22:34.380Z,24.20
2022-10-17T17:25:02.604Z,24.10
2022-10-17T17:27:32.620Z,24.10
2022-10-17T17:30:01.033Z,24.00
2022-10-17T17:32:29.594Z,23.90
2022-10-17T17:34:57.804Z,23.80
2022-10-17T17:37:26.294Z,23.70
2022-10-17T17:39:54.580Z,23.60
2022-10-17T17:42:22.822Z,23.50
2022-10-17T17:44:52.424Z,23.40
2022-10-17T17:47:20.819Z,23.30
2022-10-17T17:49:49.502Z,23.20
2022-10-17T17:52:17.784Z,23.10
2022-10-17T17:54:46.212Z,23.00
2022-10-17T17:57:14.462Z,22.90
2022-10-17T17:59:43.132Z,22.80
2022-10-17T18:02:13.023Z,22.70
2022-10-17T18:04:41.367Z,22.60
2022-10-17T18:07:09.695Z,22.50
2022-10-17T18:09:38.055Z,22.50
2022-10-17T18:12:07.938Z,22.40
2022-10-17T18:14:36.157Z,22.30
2022-10-17T18:17:04.691Z,22.30
2022-10-17T18:19:34.505Z,22.20
2022-10-17T18:22:02.756Z,22.20
2022-10-17T18:24:30.943Z,22.10
2022-10-17T18:27:01.843Z,22.10
2022-10-17T18:29:31.403Z,22.10
2022-10-17T18:32:00.175Z,22.00
2022-10-17T18:34:28.677Z,21.90
2022-10-17T18:37:00.029Z,21.90
2022-10-17T18:39:31.461Z,21.80
2022-10-17T18:41:59.940Z,21.80
2022-10-17T18:44:44.099Z,21.70
2022-10-17T18:47:12.327Z,21.60
2022-10-17T18:49:40.578Z,21.60
2022-10-17T18:52:10.214Z,21.60
2022-10-17T18:54:38.867Z,21.50
2022-10-17T18:57:07.974Z,21.50
2022-10-17T18:59:36.335Z,21.40
2022-10-17T19:02:04.929Z,21.40
2022-10-17T19:04:34.579Z,21.30
2022-10-17T19:07:02.790Z,21.20
2022-10-17T19:09:32.543Z,21.10
2022-10-17T19:12:04.429Z,21.00
2022-10-17T19:14:32.746Z,20.90
2022-10-17T19:17:04.955Z,20.80
2022-10-17T19:19:36.398Z,20.70
2022-10-17T19:22:05.653Z,20.70
2022-10-17T19:24:35.233Z,20.60
2022-10-17T19:27:05.238Z,20.60
2022-10-17T19:29:35.986Z,20.50
2022-10-17T19:32:06.881Z,20.50
2022-10-17T19:34:37.245Z,20.50
2022-10-17T19:37:08.470Z,20.50
2022-10-17T19:39:42.247Z,20.50
2022-10-17T19:42:12.476Z,20.40
2022-10-17T19:44:40.783Z,20.40
2022-10-17T19:47:09.113Z,20.30
2022-10-17T19:49:42.363Z,20.30
2022-10-17T19:52:13.263Z,20.20
2022-10-17T19:54:44.790Z,20.20
2022-10-17T19:57:16.190Z,20.20
2022-10-17T19:59:44.447Z,20.10
2022-10-17T20:02:14.607Z,20.10
2022-10-17T20:07:48.530Z,20.10
2022-10-17T20:10:18.919Z,20.00
2022-10-17T20:12:47.019Z,20.00
2022-10-17T20:15:15.567Z,20.00
2022-10-17T20:17:43.767Z,20.00
2022-10-17T20:20:12.008Z,20.00
2022-10-17T20:22:40.077Z,20.00
2022-10-17T20:25:09.050Z,20.00
2022-10-17T20:27:38.675Z,20.00
2022-10-17T20:30:08.259Z,20.10
2022-10-17T20:32:39.559Z,20.10
2022-10-17T20:35:09.239Z,20.10
2022-10-17T20:37:41.615Z,20.10
2022-10-17T20:40:33.522Z,20.10
2022-10-17T20:43:01.447Z,20.10
2022-10-17T20:45:43.794Z,20.10
2022-10-17T20:48:17.675Z,20.20
2022-10-17T20:50:45.945Z,20.20
2022-10-17T20:56:03.884Z,20.20
2022-10-17T20:58:34.142Z,20.20
2022-10-17T21:01:07.237Z,20.20
2022-10-17T21:03:39.802Z,20.20
2022-10-17T21:06:11.011Z,20.20
2022-10-17T21:08:39.335Z,20.20
2022-10-17T21:11:12.135Z,20.20
2022-10-17T21:13:41.997Z,20.20
2022-10-17T21:16:12.340Z,20.20
2022-10-17T21:18:46.430Z,20.10
2022-10-17T21:21:17.680Z,20.10
2022-10-17T21:23:47.634Z,20.10
2022-10-17T21:26:16.703Z,20.00
2022-10-17T21:28:47.772Z,20.00
2022-10-17T21:31:18.910Z,20.00
2022-10-17T21:33:48.997Z,20.00
2022-10-17T21:36:18.188Z,20.00
2022-10-17T21:38:47.575Z,19.90
2022-10-17T21:41:19.488Z,19.90
2022-10-17T21:43:49.678Z,19.90
2022-10-17T21:46:19.630Z,19.90
2022-10-17T21:48:48.933Z,19.80
2022-10-17T21:51:18.303Z,19.80
2022-10-17T21:53:46.869Z,19.70
2022-10-17T21:56:17.270Z,19.70
2022-10-17T21:58:45.938Z,19.70
2022-10-17T22:01:17.650Z,19.60
2022-10-17T22:03:49.254Z,19.60
2022-10-17T22:06:38.787Z,19.60
2022-10-17T22:09:09.826Z,19.60
2022-10-17T22:11:37.979Z,19.50
2022-10-17T22:14:07.830Z,19.60
2022-10-17T22:16:39.381Z,19.50
2022-10-17T22:19:09.251Z,19.60
2022-10-17T22:21:38.326Z,19.70
2022-10-17T22:24:08.508Z,19.90
2022-10-17T22:26:38.141Z,19.90
2022-10-17T22:29:06.906Z,20.00
2022-10-17T22:31:37.529Z,19.90
2022-10-17T22:34:05.870Z,19.90
2022-10-17T22:36:34.744Z,19.90
2022-10-17T22:39:03.184Z,20.00
2022-10-17T22:41:31.398Z,19.90
2022-10-17T22:43:59.626Z,19.90
2022-10-17T22:46:27.792Z,19.90
2022-10-17T22:48:57.421Z,19.90
2022-10-17T22:51:25.537Z,19.90
2022-10-17T22:53:53.631Z,19.90
2022-10-17T22:56:22.889Z,19.80
2022-10-17T22:58:51.522Z,19.80
2022-10-17T23:01:21.665Z,19.80
2022-10-17T23:03:50.950Z,19.80
2022-10-17T23:06:20.597Z,19.70
2022-10-17T23:08:48.930Z,19.80
2022-10-17T23:11:17.465Z,19.80
2022-10-17T23:13:45.577Z,19.70
2022-10-17T23:16:17.123Z,19.70
2022-10-17T23:18:45.391Z,19.70
2022-10-17T23:21:13.674Z,19.70
2022-10-17T23:23:43.144Z,19.80
2022-10-17T23:26:13.886Z,19.70
2022-10-17T23:28:43.838Z,19.80
2022-10-17T23:31:16.814Z,19.70
2022-10-17T23:33:46.761Z,19.70
2022-10-17T23:36:16.676Z,19.70
2022-10-17T23:38:47.230Z,19.70
2022-10-17T23:41:16.117Z,19.70
2022-10-17T23:43:44.656Z,19.60
2022-10-17T23:46:13.075Z,19.60
2022-10-17T23:48:42.081Z,19.70
2022-10-17T23:51:11.619Z,19.70
2022-10-17T23:53:40.300Z,19.70
2022-10-17T23:56:11.430Z,19.70
2022-10-17T23:58:40.266Z,19.70
